createdAt,value
2019-05-30T00:01:58.565Z,96280.66
2019-05-30T00:04:27.850Z,96280.00
2019-05-30T00:06:58.539Z,96283.52
2019-05-30T00:09:27.808Z,96281.02
2019-05-30T00:11:56.937Z,96286.38
2019-05-30T00:14:26.090Z,96289.11
2019-05-30T00:16:56.665Z,96289.37
2019-05-30T00:19:26.004Z,96287.41
2019-05-30T00:21:55.149Z,96292.23
2019-05-30T00:24:24.347Z,96285.34
2019-05-30T00:26:53.468Z,96291.28
2019-05-30T00:29:22.599Z,96293.47
2019-05-30T00:31:51.756Z,96295.14
2019-05-30T00:34:20.981Z,96298.06
2019-05-30T00:36:50.189Z,96296.27
2019-05-30T00:39:19.306Z,96298.88
2019-05-30T00:41:48.599Z,96291.94
2019-05-30T00:44:17.758Z,96295.44
2019-05-30T00:46:46.883Z,96290.22
2019-05-30T00:49:16.112Z,96288.55
2019-05-30T00:51:45.292Z,96288.18
2019-05-30T00:54:14.453Z,96292.53
2019-05-30T00:56:43.737Z,96293.20
2019-05-30T00:59:12.851Z,96291.36
2019-05-30T01:01:42.049Z,96292.77
2019-05-30T01:04:11.147Z,96292.89
2019-05-30T01:06:40.313Z,96290.46
2019-05-30T01:09:09.415Z,96293.41
2019-05-30T01:11:38.533Z,96288.48
2019-05-30T01:14:07.704Z,96280.97
2019-05-30T01:16:36.791Z,96277.81
2019-05-30T01:19:05.875Z,96291.23
2019-05-30T01:21:35.093Z,96275.84
2019-05-30T01:24:05.625Z,96291.82
2019-05-30T01:26:34.888Z,96288.69
2019-05-30T01:29:05.474Z,96285.13
2019-05-30T01:31:34.942Z,96280.78
2019-05-30T01:34:04.086Z,96282.09
2019-05-30T01:36:33.194Z,96279.91
2019-05-30T01:39:02.411Z,96275.99
2019-05-30T01:41:31.502Z,96277.34
2019-05-30T01:44:01.842Z,96277.77
2019-05-30T01:46:31.042Z,96277.40
2019-05-30T01:49:00.290Z,96276.94
2019-05-30T01:51:29.416Z,96277.88
2019-05-30T01:53:58.673Z,96282.28
2019-05-30T01:56:27.775Z,96279.71
2019-05-30T01:58:56.878Z,96274.50
2019-05-30T02:01:26.021Z,96274.50
2019-05-30T02:03:55.250Z,96271.41
2019-05-30T02:06:24.506Z,96279.77
2019-05-30T02:08:53.582Z,96278.98
2019-05-30T02:11:22.765Z,96280.78
2019-05-30T02:13:52.018Z,96287.25
2019-05-30T02:16:21.144Z,96287.70
2019-05-30T02:18:50.272Z,96287.66
2019-05-30T02:21:19.526Z,96281.61
2019-05-30T02:23:48.601Z,96285.66
2019-05-30T02:26:17.738Z,96285.50
2019-05-30T02:28:46.841Z,96290.83
2019-05-30T02:31:15.945Z,96289.52
2019-05-30T02:33:45.085Z,96295.72
2019-05-30T02:36:14.177Z,96292.23
2019-05-30T02:38:43.316Z,96291.72
2019-05-30T02:41:13.279Z,96292.08
2019-05-30T02:43:42.358Z,96295.06
2019-05-30T02:46:12.579Z,96296.77
2019-05-30T02:48:58.008Z,96294.64
2019-05-30T02:51:12.930Z,96292.45
2019-05-30T02:53:42.215Z,96293.28
2019-05-30T02:56:12.700Z,96293.74
2019-05-30T02:58:41.934Z,96299.22
2019-05-30T03:01:12.127Z,96295.35
2019-05-30T03:03:41.926Z,96297.19
2019-05-30T03:06:13.585Z,96297.75
2019-05-30T03:08:41.912Z,96300.73
2019-05-30T03:11:15.036Z,96308.08
2019-05-30T03:13:42.248Z,96301.61
2019-05-30T03:16:13.511Z,96308.08
2019-05-30T03:18:42.162Z,96306.73
2019-05-30T03:21:13.412Z,96310.59
2019-05-30T03:23:42.145Z,96313.62
2019-05-30T03:26:13.695Z,96316.84
2019-05-30T03:28:42.235Z,96319.51
2019-05-30T03:31:23.072Z,96316.42
2019-05-30T03:33:43.409Z,96322.06
2019-05-30T03:36:26.418Z,96325.03
2019-05-30T03:38:43.681Z,96320.29
2019-05-30T03:41:12.816Z,96322.81
2019-05-30T03:43:41.946Z,96323.22
2019-05-30T03:46:18.591Z,96327.09
2019-05-30T03:48:50.620Z,96330.16
2019-05-30T03:51:21.445Z,96327.19
2019-05-30T03:53:51.308Z,96330.72
2019-05-30T03:56:24.454Z,96330.03
2019-05-30T03:59:32.224Z,96332.59
2019-05-30T04:02:09.556Z,96340.47
2019-05-30T04:04:43.038Z,96341.95
2019-05-30T04:07:19.429Z,96337.56
2019-05-30T04:09:51.190Z,96341.48
2019-05-30T04:12:41.932Z,96345.77
2019-05-30T04:15:18.676Z,96346.73
2019-05-30T04:17:48.048Z,96351.41
2019-05-30T04:20:21.215Z,96354.98
2019-05-30T04:22:48.077Z,96349.89
2019-05-30T04:25:18.330Z,96362.47
2019-05-30T04:27:47.769Z,96363.69
2019-05-30T04:30:18.404Z,96360.08
2019-05-30T04:32:47.708Z,96369.06
2019-05-30T04:35:18.786Z,96369.02
2019-05-30T04:37:47.769Z,96368.55
2019-05-30T04:40:19.201Z,96380.63
2019-05-30T04:42:48.557Z,96380.58
2019-05-30T04:45:18.141Z,96381.79
2019-05-30T04:47:47.962Z,96377.78
2019-05-30T04:50:18.767Z,96379.55
2019-05-30T04:52:48.146Z,96379.09
2019-05-30T04:55:18.509Z,96386.41
2019-05-30T04:57:48.165Z,96381.65
2019-05-30T05:00:19.309Z,96379.38
2019-05-30T05:02:48.615Z,96379.89
2019-05-30T05:05:24.758Z,96386.50
2019-05-30T05:07:50.404Z,96388.55
2019-05-30T05:10:20.360Z,96391.90
2019-05-30T05:12:49.509Z,96395.72
2019-05-30T05:15:18.867Z,96401.61
2019-05-30T05:17:47.994Z,96397.08
2019-05-30T05:20:17.406Z,96399.16
2019-05-30T05:22:46.587Z,96395.97
2019-05-30T05:25:15.742Z,96399.00
2019-05-30T05:27:44.848Z,96401.30
2019-05-30T05:30:16.042Z,96397.44
2019-05-30T05:32:45.215Z,96397.48
2019-05-30T05:35:14.807Z,96397.86
2019-05-30T05:37:44.098Z,96393.79
2019-05-30T05:40:13.569Z,96400.27
2019-05-30T05:42:42.906Z,96401.30
2019-05-30T05:45:12.456Z,96404.43
2019-05-30T05:47:41.620Z,96399.11
2019-05-30T05:50:11.979Z,96398.53
2019-05-30T05:52:41.274Z,96403.80
2019-05-30T05:55:10.535Z,96405.80
2019-05-30T05:57:39.669Z,96411.45
2019-05-30T06:00:10.072Z,96411.45
2019-05-30T06:02:39.279Z,96414.89
2019-05-30T06:05:08.539Z,96411.23
2019-05-30T06:07:37.687Z,96413.26
2019-05-30T06:10:07.259Z,96411.02
2019-05-30T06:12:36.416Z,96418.37
2019-05-30T06:15:05.784Z,96417.44
2019-05-30T06:17:34.917Z,96421.72
2019-05-30T06:20:04.357Z,96422.34
2019-05-30T06:22:33.619Z,96420.98
2019-05-30T06:25:03.695Z,96421.33
2019-05-30T06:27:32.789Z,96423.72
2019-05-30T06:30:02.026Z,96427.58
2019-05-30T06:32:31.452Z,96420.52
2019-05-30T06:35:00.620Z,96423.84
2019-05-30T06:37:29.742Z,96425.86
2019-05-30T06:39:58.888Z,96430.06
2019-05-30T06:42:28.308Z,96426.41
2019-05-30T06:44:57.544Z,96423.30
2019-05-30T06:47:26.678Z,96427.64
2019-05-30T06:49:55.828Z,96430.20
2019-05-30T06:52:25.016Z,96426.61
2019-05-30T06:54:54.115Z,96430.82
2019-05-30T06:57:23.242Z,96431.65
2019-05-30T06:59:52.393Z,96427.55
2019-05-30T07:02:22.296Z,96430.92
2019-05-30T07:04:52.924Z,96428.65
2019-05-30T07:07:22.984Z,96430.66
2019-05-30T07:09:52.338Z,96427.55
2019-05-30T07:12:22.818Z,96430.45
2019-05-30T07:14:52.067Z,96431.27
2019-05-30T07:17:21.282Z,96428.03
2019-05-30T07:19:50.407Z,96434.26
2019-05-30T07:22:19.617Z,96438.95
2019-05-30T07:24:48.740Z,96429.36
2019-05-30T07:27:17.953Z,96445.56
2019-05-30T07:29:47.112Z,96442.81
2019-05-30T07:32:16.260Z,96447.30
2019-05-30T07:34:46.138Z,96449.44
2019-05-30T07:37:17.376Z,96453.83
2019-05-30T07:39:46.515Z,96453.95
2019-05-30T07:42:15.696Z,96447.45
2019-05-30T07:44:44.881Z,96453.61
2019-05-30T07:47:14.007Z,96445.34
2019-05-30T07:49:43.169Z,96441.89
2019-05-30T07:52:12.313Z,96442.85
2019-05-30T07:54:41.640Z,96441.64
2019-05-30T07:57:10.752Z,96443.90
2019-05-30T07:59:40.083Z,96447.78
2019-05-30T08:02:09.395Z,96449.24
2019-05-30T08:04:38.625Z,96449.39
2019-05-30T08:07:07.867Z,96454.64
2019-05-30T08:09:37.047Z,96453.91
2019-05-30T08:12:06.176Z,96454.88
2019-05-30T08:14:35.381Z,96457.24
2019-05-30T08:17:04.662Z,96451.75
2019-05-30T08:19:34.376Z,96445.41
2019-05-30T08:22:03.674Z,96447.78
2019-05-30T08:24:34.395Z,96448.16
2019-05-30T08:27:03.915Z,96452.71
2019-05-30T08:29:34.280Z,96453.62
2019-05-30T08:32:03.452Z,96450.78
2019-05-30T08:34:32.689Z,96455.56
2019-05-30T08:37:01.805Z,96465.14
2019-05-30T08:39:30.952Z,96463.42
2019-05-30T08:42:00.129Z,96461.87
2019-05-30T08:44:29.440Z,96461.78
2019-05-30T08:46:58.639Z,96460.09
2019-05-30T08:49:27.856Z,96453.34
2019-05-30T08:51:57.009Z,96460.14
2019-05-30T08:54:26.126Z,96456.97
2019-05-30T08:56:55.284Z,96457.77
2019-05-30T08:59:24.424Z,96458.69
2019-05-30T09:01:53.579Z,96460.30
2019-05-30T09:04:22.712Z,96464.00
2019-05-30T09:06:51.907Z,96461.06
2019-05-30T09:09:21.085Z,96462.26
2019-05-30T09:11:50.256Z,96458.98
2019-05-30T09:14:19.395Z,96459.74
2019-05-30T09:16:49.614Z,96459.57
2019-05-30T09:19:19.024Z,96461.44
2019-05-30T09:21:48.374Z,96459.72
2019-05-30T09:24:17.571Z,96457.97
2019-05-30T09:26:50.032Z,96455.95
2019-05-30T09:29:17.666Z,96454.11
2019-05-30T09:31:46.959Z,96452.02
2019-05-30T09:34:16.066Z,96458.36
2019-05-30T09:36:45.247Z,96456.70
2019-05-30T09:39:14.463Z,96451.72
2019-05-30T09:41:43.890Z,96452.98
2019-05-30T09:44:13.109Z,96449.07
2019-05-30T09:46:42.542Z,96451.70
2019-05-30T09:49:11.793Z,96452.03
2019-05-30T09:51:42.488Z,96449.74
2019-05-30T09:54:11.823Z,96453.08
2019-05-30T09:56:42.042Z,96446.08
2019-05-30T09:59:11.912Z,96437.21
2019-05-30T10:01:42.576Z,96443.77
2019-05-30T10:04:11.947Z,96443.00
2019-05-30T10:06:42.081Z,96444.53
2019-05-30T10:09:12.004Z,96440.06
2019-05-30T10:11:41.228Z,96443.00
2019-05-30T10:14:10.397Z,96438.28
2019-05-30T10:16:39.597Z,96434.69
2019-05-30T10:19:08.776Z,96431.49
2019-05-30T10:21:38.110Z,96429.51
2019-05-30T10:24:07.279Z,96433.24
2019-05-30T10:26:36.621Z,96433.77
2019-05-30T10:29:05.943Z,96435.30
2019-05-30T10:31:35.130Z,96439.70
2019-05-30T10:34:04.521Z,96436.77
2019-05-30T10:36:43.857Z,96444.84
2019-05-30T10:39:05.798Z,96437.80
2019-05-30T10:41:34.934Z,96435.84
2019-05-30T10:44:04.093Z,96436.38
2019-05-30T10:46:33.292Z,96434.69
2019-05-30T10:49:02.697Z,96431.52
2019-05-30T10:51:31.898Z,96420.55
2019-05-30T10:54:01.267Z,96415.99
2019-05-30T10:56:30.441Z,96418.80
2019-05-30T10:58:59.610Z,96417.95
2019-05-30T11:01:28.776Z,96412.55
2019-05-30T11:03:57.898Z,96412.16
2019-05-30T11:06:42.527Z,96416.73
2019-05-30T11:09:13.333Z,96410.40
2019-05-30T11:11:42.475Z,96411.41
2019-05-30T11:14:11.668Z,96402.66
2019-05-30T11:16:40.887Z,96403.14
2019-05-30T11:19:10.108Z,96403.73
2019-05-30T11:21:39.308Z,96396.01
2019-05-30T11:24:08.444Z,96392.04
2019-05-30T11:26:37.686Z,96387.09
2019-05-30T11:29:06.901Z,96390.45
2019-05-30T11:31:36.109Z,96393.34
2019-05-30T11:34:05.393Z,96394.11
2019-05-30T11:36:34.505Z,96393.45
2019-05-30T11:39:04.402Z,96391.59
2019-05-30T11:41:33.562Z,96384.95
2019-05-30T11:44:04.230Z,96380.17
2019-05-30T11:46:33.565Z,96383.50
2019-05-30T11:49:02.710Z,96387.66
2019-05-30T11:51:31.941Z,96377.68
2019-05-30T11:54:01.232Z,96379.92
2019-05-30T11:56:30.335Z,96382.20
2019-05-30T11:59:00.186Z,96378.98
2019-05-30T12:01:29.533Z,96383.33
2019-05-30T12:03:58.833Z,96373.39
2019-05-30T12:06:27.954Z,96376.22
2019-05-30T12:08:57.136Z,96376.53
2019-05-30T12:11:26.291Z,96375.64
2019-05-30T12:13:57.083Z,96373.09
2019-05-30T12:16:26.562Z,96374.22
2019-05-30T12:18:55.867Z,96372.64
2019-05-30T12:21:25.047Z,96372.80
2019-05-30T12:23:54.531Z,96378.69
2019-05-30T12:26:23.782Z,96372.84
2019-05-30T12:28:54.097Z,96373.50
2019-05-30T12:31:23.325Z,96375.19
2019-05-30T12:33:52.495Z,96375.20
2019-05-30T12:36:21.627Z,96372.72
2019-05-30T12:38:50.793Z,96370.34
2019-05-30T12:41:19.970Z,96371.08
2019-05-30T12:43:49.125Z,96368.25
2019-05-30T12:46:20.396Z,96366.37
2019-05-30T12:48:49.605Z,96365.39
2019-05-30T12:51:18.787Z,96364.89
2019-05-30T12:53:48.003Z,96360.48
2019-05-30T12:56:17.120Z,96353.97
2019-05-30T12:58:46.346Z,96359.80
2019-05-30T13:01:17.971Z,96354.44
2019-05-30T13:03:47.146Z,96354.05
2019-05-30T13:06:16.273Z,96351.64
2019-05-30T13:08:45.592Z,96345.78
2019-05-30T13:11:14.868Z,96339.23
2019-05-30T13:13:44.040Z,96337.54
2019-05-30T13:16:13.200Z,96341.58
2019-05-30T13:18:42.356Z,96337.93
2019-05-30T13:21:11.548Z,96334.41
2019-05-30T13:23:40.746Z,96344.27
2019-05-30T13:26:09.955Z,96340.31
2019-05-30T13:28:39.106Z,96343.19
2019-05-30T13:31:08.243Z,96352.28
2019-05-30T13:33:38.608Z,96352.03
2019-05-30T13:36:07.946Z,96352.42
2019-05-30T13:38:37.116Z,96356.50
2019-05-30T13:41:06.285Z,96348.88
2019-05-30T13:43:35.437Z,96344.86
2019-05-30T13:46:04.731Z,96347.05
2019-05-30T13:48:33.911Z,96348.28
2019-05-30T13:51:03.081Z,96345.58
2019-05-30T13:53:32.295Z,96338.92
2019-05-30T13:56:01.538Z,96337.98
2019-05-30T13:58:30.873Z,96344.56
2019-05-30T14:01:04.248Z,96343.73
2019-05-30T14:03:31.024Z,96344.50
2019-05-30T14:06:00.172Z,96339.05
2019-05-30T14:08:41.105Z,96341.38
2019-05-30T14:11:02.499Z,96342.79
2019-05-30T14:13:31.685Z,96334.93
2019-05-30T14:16:01.006Z,96340.59
2019-05-30T14:18:30.229Z,96335.33
2019-05-30T14:20:59.359Z,96332.23
2019-05-30T14:23:28.512Z,96329.55
2019-05-30T14:25:57.680Z,96333.14
2019-05-30T14:28:26.872Z,96332.69
2019-05-30T14:30:56.080Z,96338.73
2019-05-30T14:33:25.368Z,96334.13
2019-05-30T14:35:54.479Z,96332.17
2019-05-30T14:38:23.694Z,96337.44
2019-05-30T14:40:52.949Z,96345.41
2019-05-30T14:43:22.103Z,96341.09
2019-05-30T14:45:51.780Z,96346.84
2019-05-30T14:48:20.889Z,96342.69
2019-05-30T14:50:50.027Z,96340.33
2019-05-30T14:53:19.195Z,96342.21
2019-05-30T14:55:48.322Z,96337.00
2019-05-30T14:58:17.832Z,96340.16
2019-05-30T15:00:47.202Z,96345.84
2019-05-30T15:03:17.527Z,96348.52
2019-05-30T15:05:46.763Z,96350.90
2019-05-30T15:08:16.910Z,96354.27
2019-05-30T15:10:46.460Z,96356.01
2019-05-30T15:13:15.835Z,96358.25
2019-05-30T15:15:44.885Z,96358.32
2019-05-30T15:18:14.032Z,96352.27
2019-05-30T15:20:43.164Z,96351.73
2019-05-30T15:23:12.358Z,96345.72
2019-05-30T15:25:44.307Z,96355.43
2019-05-30T15:28:14.130Z,96347.03
2019-05-30T15:30:43.433Z,96351.85
2019-05-30T15:33:12.713Z,96342.98
2019-05-30T15:35:41.769Z,96346.00
2019-05-30T15:38:10.966Z,96341.25
2019-05-30T15:40:40.443Z,96341.03
2019-05-30T15:43:09.588Z,96337.88
2019-05-30T15:45:38.748Z,96340.12
2019-05-30T15:48:08.305Z,96338.20
2019-05-30T15:50:37.471Z,96335.48
2019-05-30T15:53:06.629Z,96335.92
2019-05-30T15:55:35.752Z,96345.59
2019-05-30T15:58:04.938Z,96333.83
2019-05-30T16:00:36.920Z,96340.77
2019-05-30T16:03:05.266Z,96348.36
2019-05-30T16:05:34.430Z,96337.04
2019-05-30T16:08:03.603Z,96339.44
2019-05-30T16:10:32.738Z,96340.39
2019-05-30T16:13:01.909Z,96340.75
2019-05-30T16:15:31.048Z,96338.20
2019-05-30T16:18:00.566Z,96332.11
2019-05-30T16:20:29.715Z,96334.13
2019-05-30T16:22:58.929Z,96342.56
2019-05-30T16:25:28.061Z,96343.92
2019-05-30T16:27:57.262Z,96338.11
2019-05-30T16:30:27.126Z,96336.01
2019-05-30T16:32:56.350Z,96337.23
2019-05-30T16:35:26.503Z,96343.59
2019-05-30T16:37:55.708Z,96340.84
2019-05-30T16:40:24.905Z,96332.42
2019-05-30T16:42:54.093Z,96328.73
2019-05-30T16:45:25.362Z,96334.55
2019-05-30T16:47:55.085Z,96334.55
2019-05-30T16:50:24.673Z,96333.78
2019-05-30T16:52:53.834Z,96333.78
2019-05-30T16:55:23.496Z,96327.87
2019-05-30T16:57:52.622Z,96331.36
2019-05-30T17:00:22.401Z,96325.16
2019-05-30T17:02:51.642Z,96330.47
2019-05-30T17:05:20.770Z,96331.41
2019-05-30T17:07:49.930Z,96336.59
2019-05-30T17:10:27.484Z,96326.45
2019-05-30T17:12:50.176Z,96345.73
2019-05-30T17:15:19.998Z,96351.09
2019-05-30T17:17:49.119Z,96348.27
2019-05-30T17:20:18.636Z,96353.35
2019-05-30T17:22:47.803Z,96352.55
2019-05-30T17:25:17.164Z,96351.47
2019-05-30T17:27:46.376Z,96355.75
2019-05-30T17:30:17.405Z,96350.77
2019-05-30T17:32:47.051Z,96351.27
2019-05-30T17:35:16.298Z,96355.69
2019-05-30T17:37:45.433Z,96348.30
2019-05-30T17:40:15.168Z,96354.52
2019-05-30T17:42:44.324Z,96351.63
2019-05-30T17:45:15.239Z,96360.67
2019-05-30T17:47:44.383Z,96358.70
2019-05-30T17:50:13.740Z,96361.35
2019-05-30T17:52:42.862Z,96357.09
2019-05-30T17:55:13.948Z,96360.73
2019-05-30T17:57:43.142Z,96357.36
2019-05-30T18:00:13.096Z,96363.03
2019-05-30T18:02:42.285Z,96355.92
2019-05-30T18:05:11.780Z,96363.41
2019-05-30T18:07:41.445Z,96367.86
2019-05-30T18:10:12.374Z,96369.86
2019-05-30T18:12:41.516Z,96366.73
2019-05-30T18:15:11.395Z,96368.59
2019-05-30T18:17:40.588Z,96368.34
2019-05-30T18:20:10.493Z,96370.42
2019-05-30T18:22:39.657Z,96371.99
2019-05-30T18:25:10.708Z,96374.30
2019-05-30T18:27:39.886Z,96378.38
2019-05-30T18:30:09.620Z,96377.67
2019-05-30T18:32:38.784Z,96379.44
2019-05-30T18:35:08.686Z,96376.94
2019-05-30T18:37:38.462Z,96379.92
2019-05-30T18:40:08.088Z,96377.33
2019-05-30T18:42:37.439Z,96373.06
2019-05-30T18:45:08.193Z,96384.16
2019-05-30T18:47:37.338Z,96380.92
2019-05-30T18:50:06.805Z,96377.09
2019-05-30T18:52:36.812Z,96376.53
2019-05-30T18:55:06.660Z,96374.69
2019-05-30T18:57:37.128Z,96383.41
2019-05-30T19:00:07.593Z,96382.72
2019-05-30T19:02:36.982Z,96383.92
2019-05-30T19:05:06.950Z,96382.16
2019-05-30T19:07:37.209Z,96381.09
2019-05-30T19:10:07.063Z,96381.88
2019-05-30T19:12:36.639Z,96383.59
2019-05-30T19:15:06.861Z,96389.49
2019-05-30T19:17:36.153Z,96389.54
2019-05-30T19:20:05.727Z,96391.51
2019-05-30T19:22:36.295Z,96397.84
2019-05-30T19:25:05.977Z,96406.01
2019-05-30T19:27:37.995Z,96406.06
2019-05-30T19:30:06.814Z,96403.44
2019-05-30T19:32:36.940Z,96407.36
2019-05-30T19:35:07.398Z,96415.23
2019-05-30T19:37:37.616Z,96415.59
2019-05-30T19:40:07.447Z,96413.48
2019-05-30T19:42:37.866Z,96419.78
2019-05-30T19:45:08.097Z,96422.47
2019-05-30T19:47:38.598Z,96428.89
2019-05-30T19:50:09.529Z,96427.80
2019-05-30T19:52:39.213Z,96426.06
2019-05-30T19:55:09.019Z,96437.34
2019-05-30T19:57:38.110Z,96436.41
2019-05-30T20:00:08.531Z,96439.30
2019-05-30T20:02:38.311Z,96441.75
2019-05-30T20:05:08.381Z,96438.50
2019-05-30T20:07:38.760Z,96439.05
2019-05-30T20:10:08.279Z,96440.69
2019-05-30T20:12:37.489Z,96441.70
2019-05-30T20:15:08.083Z,96441.63
2019-05-30T20:17:37.611Z,96452.73
2019-05-30T20:20:07.586Z,96452.36
2019-05-30T20:22:38.126Z,96459.34
2019-05-30T20:25:08.263Z,96451.73
2019-05-30T20:27:38.808Z,96451.73
2019-05-30T20:30:09.750Z,96461.23
2019-05-30T20:32:39.057Z,96464.81
2019-05-30T20:35:08.322Z,96459.63
2019-05-30T20:37:38.640Z,96462.76
2019-05-30T20:40:08.120Z,96461.31
2019-05-30T20:42:37.398Z,96460.41
2019-05-30T20:45:09.913Z,96464.38
2019-05-30T20:47:39.363Z,96467.22
2019-05-30T20:50:09.291Z,96464.99
2019-05-30T20:52:41.847Z,96464.59
2019-05-30T20:55:09.775Z,96469.75
2019-05-30T20:57:39.002Z,96469.45
2019-05-30T21:00:08.653Z,96466.00
2019-05-30T21:02:39.083Z,96470.05
2019-05-30T21:05:10.157Z,96468.30
2019-05-30T21:07:41.944Z,96476.73
2019-05-30T21:10:12.842Z,96478.55
2019-05-30T21:12:46.753Z,96467.75
2019-05-30T21:15:14.766Z,96478.74
2019-05-30T21:17:46.373Z,96472.30
2019-05-30T21:20:15.595Z,96470.23
2019-05-30T21:22:44.934Z,96468.92
2019-05-30T21:25:14.371Z,96469.36
2019-05-30T21:27:43.528Z,96472.39
2019-05-30T21:30:13.218Z,96473.80
2019-05-30T21:32:44.112Z,96471.47
2019-05-30T21:35:14.320Z,96475.91
2019-05-30T21:37:43.877Z,96474.14
2019-05-30T21:40:13.017Z,96473.23
2019-05-30T21:42:58.243Z,96472.91
2019-05-30T21:45:13.499Z,96471.13
2019-05-30T21:47:42.902Z,96468.56
2019-05-30T21:50:12.314Z,96468.69
2019-05-30T21:52:41.639Z,96471.48
2019-05-30T21:55:11.063Z,96470.03
2019-05-30T21:57:40.276Z,96472.78
2019-05-30T22:00:12.419Z,96467.18
2019-05-30T22:02:44.563Z,96468.11
2019-05-30T22:05:13.839Z,96462.52
2019-05-30T22:07:43.127Z,96466.14
2019-05-30T22:10:12.259Z,96467.13
2019-05-30T22:12:41.550Z,96467.24
2019-05-30T22:15:10.963Z,96466.89
2019-05-30T22:17:43.760Z,96467.16
2019-05-30T22:20:13.055Z,96466.44
2019-05-30T22:22:42.246Z,96465.00
2019-05-30T22:25:11.472Z,96465.98
2019-05-30T22:27:40.656Z,96466.78
2019-05-30T22:30:09.892Z,96459.92
2019-05-30T22:32:39.039Z,96460.00
2019-05-30T22:35:08.240Z,96458.66
2019-05-30T22:37:37.348Z,96459.19
2019-05-30T22:40:06.523Z,96457.78
2019-05-30T22:42:35.676Z,96461.78
2019-05-30T22:45:05.119Z,96457.37
2019-05-30T22:47:34.245Z,96457.44
2019-05-30T22:50:03.372Z,96460.17
2019-05-30T22:52:32.640Z,96460.25
2019-05-30T22:55:01.822Z,96459.44
2019-05-30T22:57:30.949Z,96466.88
2019-05-30T23:00:00.036Z,96463.13
2019-05-30T23:02:29.208Z,96460.97
2019-05-30T23:04:58.342Z,96457.53
2019-05-30T23:07:27.452Z,96464.52
2019-05-30T23:09:56.566Z,96464.09
2019-05-30T23:12:25.725Z,96460.27
2019-05-30T23:14:54.882Z,96468.12
2019-05-30T23:17:24.016Z,96464.36
2019-05-30T23:19:53.285Z,96470.02
2019-05-30T23:22:22.636Z,96465.97
2019-05-30T23:24:52.611Z,96464.58
2019-05-30T23:27:22.880Z,96466.06
2019-05-30T23:29:52.002Z,96471.38
2019-05-30T23:32:21.158Z,96467.80
2019-05-30T23:34:50.283Z,96466.47
2019-05-30T23:37:19.472Z,96458.62
2019-05-30T23:39:48.771Z,96465.25
2019-05-30T23:42:17.974Z,96459.83
2019-05-30T23:44:47.082Z,96455.07
2019-05-30T23:47:16.258Z,96452.21
2019-05-30T23:49:45.497Z,96450.44
2019-05-30T23:52:14.614Z,96449.61
2019-05-30T23:54:43.726Z,96448.14
2019-05-30T23:57:12.845Z,96448.06
2019-05-30T23:59:42.012Z,96447.78
